Cumberland, WV

4:18 PM EDT on July 27, 2017 (GMT -0400)
Greater Cumberland Regional

Weather History for KCBE - November, 2011

Change the Weather History Date:

Sunday, November 6, 2011

  Actual Average (KMRB) Record (KMRB)
Temperature  
Mean Temperature 40 °F -  
Max Temperature 55 °F 56 °F 80 °F (1935)
Min Temperature 26 °F 35 °F 18 °F (1991)
Degree Days  
Heating Degree Days 24    
Moisture  
Dew Point 30 °F    
Average Humidity 79    
Maximum Humidity 100    
Minimum Humidity 41    
Precipitation  
Precipitation 0.00 in - - ()
Sea Level Pressure  
Sea Level Pressure 30.48 in    
Wind  
Wind Speed 0 mph (South)    
Max Wind Speed 6 mph    
Max Gust Speed -    
Visibility 10 miles    
Events      
Averages and records for this station are not official NWS values.
T = Trace of Precipitation, MM = Missing Value Source: NWS Daily Summary

Daily Weather History Graph

Daily Weather History Graph

Search for Another Location

Airport or City:

Trip Planner

Search our weather history database for the weather conditions in past years. The results will help you decide how hot, cold, wet, or windy it might be!

Date:

Astronomy

Nov. 06, 2011 Rise Set
Actual Time 6:48 AM EST 5:08 PM EST
Civil Twilight 6:20 AM EST 5:36 PM EST
Nautical Twilight 5:48 AM EST 6:08 PM EST
Astronomical Twilight 5:16 AM EST 6:39 PM EST
Moon 2:50 PM EST (11/6) 2:54 AM EST (11/6)
Length of Visible Light 11h 15m
Length of Day
10h 19m
Waxing Gibbous, 85% of the Moon is Illuminated
Nov 6
Waxing Gibbous
Nov 10
Full
Nov 18
Last Quarter
Nov 25
New
Dec 2
First Quarter

Hourly Weather History & Observations

Time (EST) Temp. Windchill Dew Point Humidity Pressure Visibility Wind Dir Wind Speed Gust Speed Precip Events Conditions
12:01 AM 33.8 °F - 28.4 °F 81% 30.48 in 10.0 mi Calm Calm - N/A   Clear
12:02 AM 33.8 °F - 28.4 °F 81% 30.48 in 10.0 mi Calm Calm - N/A   Clear
12:21 AM 33.8 °F - 30.2 °F 87% 30.47 in 10.0 mi Calm Calm - N/A   Clear
12:40 AM 32.0 °F - 28.4 °F 87% 30.47 in 10.0 mi Calm Calm - N/A   Clear
1:00 AM 32.0 °F - 28.4 °F 87% 30.48 in 10.0 mi Calm Calm - N/A   Clear
1:19 AM 32.0 °F - 28.4 °F 87% 30.48 in 10.0 mi Calm Calm - N/A   Clear
1:38 AM 32.0 °F - 28.4 °F 87% 30.48 in 10.0 mi Calm Calm - N/A   Clear
1:58 AM 32.0 °F - 28.4 °F 87% 30.48 in 10.0 mi Calm Calm - N/A   Clear
1:17 AM 32.0 °F - 28.4 °F 87% 30.47 in 10.0 mi Calm Calm - N/A   Clear
1:36 AM 30.2 °F - 28.4 °F 93% 30.48 in 10.0 mi Calm Calm - N/A   Clear
1:56 AM 30.2 °F - 28.4 °F 93% 30.48 in 10.0 mi Calm Calm - N/A   Clear
2:15 AM 30.2 °F - 28.4 °F 93% 30.48 in 10.0 mi Calm Calm - N/A   Clear
2:34 AM 30.2 °F - 30.2 °F 100% 30.48 in 10.0 mi Calm Calm - N/A   Clear
2:54 AM 28.4 °F - 28.4 °F 100% 30.48 in 10.0 mi Calm Calm - N/A   Clear
3:13 AM 28.4 °F - 28.4 °F 100% 30.47 in 10.0 mi Calm Calm - N/A   Clear
3:32 AM 30.2 °F - 28.4 °F 93% 30.47 in 10.0 mi Calm Calm - N/A   Clear
3:52 AM 28.4 °F - 28.4 °F 100% 30.48 in 10.0 mi Calm Calm - N/A   Clear
4:11 AM 28.4 °F - 28.4 °F 100% 30.48 in 10.0 mi Calm Calm - N/A   Clear
4:30 AM 28.4 °F - 28.4 °F 100% 30.48 in 10.0 mi Calm Calm - N/A   Clear
4:50 AM 28.4 °F - 28.4 °F 100% 30.49 in 7.0 mi Calm Calm - N/A   Clear
5:09 AM 28.4 °F - 28.4 °F 100% 30.49 in 7.0 mi Calm Calm - N/A   Clear
5:28 AM 28.4 °F - 28.4 °F 100% 30.49 in 1.8 mi Calm Calm - N/A   Unknown
5:48 AM 28.4 °F - 28.4 °F 100% 30.50 in 10.0 mi Calm Calm - N/A   Clear
6:07 AM 26.6 °F - 26.6 °F 100% 30.50 in 10.0 mi Calm Calm - N/A   Clear
6:26 AM 26.6 °F - 26.6 °F 100% 30.50 in 10.0 mi Calm Calm - N/A   Clear
6:46 AM 26.6 °F - 26.6 °F 100% 30.51 in 10.0 mi Calm Calm - N/A   Clear
7:05 AM 26.6 °F - 26.6 °F 100% 30.51 in 10.0 mi Calm Calm - N/A   Clear
7:24 AM 28.4 °F - 28.4 °F 100% 30.52 in 7.0 mi Calm Calm - N/A   Clear
7:43 AM 28.4 °F - 28.4 °F 100% 30.52 in 10.0 mi Calm Calm - N/A   Clear
8:03 AM 30.2 °F - 30.2 °F 100% 30.52 in 10.0 mi Calm Calm - N/A   Clear
8:22 AM 32.0 °F - 32.0 °F 100% 30.53 in 10.0 mi Calm Calm - N/A   Clear
8:41 AM 32.0 °F - 32.0 °F 100% 30.53 in 10.0 mi Calm Calm - N/A   Clear
9:01 AM 32.0 °F - 32.0 °F 100% 30.53 in 10.0 mi Calm Calm - N/A   Clear
9:20 AM 35.6 °F - 32.0 °F 87% 30.53 in 10.0 mi Calm Calm - N/A   Clear
9:39 AM 37.4 °F - 32.0 °F 81% 30.52 in 10.0 mi Calm Calm - N/A   Clear
9:58 AM 39.2 °F - 33.8 °F 81% 30.53 in 10.0 mi Calm Calm - N/A   Clear
10:18 AM 41.0 °F - 32.0 °F 70% 30.52 in 10.0 mi Calm Calm - N/A   Clear
10:37 AM 42.8 °F 41.1 °F 32.0 °F 66% 30.52 in 10.0 mi SSW 3.5 mph - N/A   Clear
10:56 AM 44.6 °F - 32.0 °F 61% 30.52 in 10.0 mi Calm Calm - N/A   Clear
11:16 AM 46.4 °F 44.3 °F 32.0 °F 57% 30.50 in 10.0 mi South 4.6 mph - N/A   Clear
11:35 AM 48.2 °F - 32.0 °F 54% 30.49 in 10.0 mi SSE 4.6 mph - N/A   Clear
11:54 AM 50.0 °F - 32.0 °F 50% 30.47 in 10.0 mi Calm Calm - N/A   Clear
12:14 PM 50.0 °F - 32.0 °F 50% 30.47 in 10.0 mi Calm Calm - N/A   Clear
12:33 PM 51.8 °F - 32.0 °F 47% 30.46 in 10.0 mi SSE 4.6 mph - N/A   Clear
12:52 PM 51.8 °F - 32.0 °F 47% 30.45 in 10.0 mi Calm Calm - N/A   Clear
1:11 PM 53.6 °F - 32.0 °F 44% 30.44 in 10.0 mi South 3.5 mph - N/A   Clear
1:31 PM 53.6 °F - 33.8 °F 47% 30.44 in 10.0 mi South 4.6 mph - N/A   Clear
1:50 PM 55.4 °F - 32.0 °F 41% 30.43 in 10.0 mi South 4.6 mph - N/A   Clear
2:09 PM 55.4 °F - 33.8 °F 44% 30.41 in 10.0 mi South 5.8 mph - N/A   Clear
2:28 PM 55.4 °F - 33.8 °F 44% 30.41 in 10.0 mi SW 3.5 mph - N/A   Clear
2:48 PM 55.4 °F - 33.8 °F 44% 30.40 in 10.0 mi Calm Calm - N/A   Clear
3:07 PM 55.4 °F - 33.8 °F 44% 30.39 in 10.0 mi Calm Calm - N/A   Clear
3:26 PM 55.4 °F - 33.8 °F 44% 30.39 in 10.0 mi Calm Calm - N/A   Clear
3:46 PM 55.4 °F - 33.8 °F 44% 30.39 in 10.0 mi Calm Calm - N/A   Clear
4:05 PM 55.4 °F - 33.8 °F 44% 30.38 in 10.0 mi Calm Calm - N/A   Clear
4:24 PM 55.4 °F - 33.8 °F 44% 30.38 in 10.0 mi Calm Calm - N/A   Clear
4:44 PM 55.4 °F - 33.8 °F 44% 30.38 in 10.0 mi Calm Calm - N/A   Clear
5:03 PM 53.6 °F - 32.0 °F 44% 30.38 in 10.0 mi NNW 3.5 mph - N/A   Clear
5:22 PM 51.8 °F - 32.0 °F 47% 30.38 in 10.0 mi North 3.5 mph - N/A   Clear
5:41 PM 50.0 °F - 33.8 °F 54% 30.39 in 10.0 mi ENE 3.5 mph - N/A   Clear
6:01 PM 48.2 °F - 33.8 °F 58% 30.38 in 10.0 mi NW 3.5 mph - N/A   Clear
6:20 PM 48.2 °F - 33.8 °F 58% 30.38 in 10.0 mi NW 5.8 mph - N/A   Clear
6:39 PM 46.4 °F 44.3 °F 33.8 °F 62% 30.39 in 10.0 mi NNW 4.6 mph - N/A   Clear
6:59 PM 46.4 °F 44.3 °F 33.8 °F 62% 30.39 in 10.0 mi NNW 4.6 mph - N/A   Clear
7:18 PM 46.4 °F 43.5 °F 33.8 °F 62% 30.39 in 10.0 mi NNW 5.8 mph - N/A   Clear
7:37 PM 44.6 °F 42.2 °F 33.8 °F 66% 30.39 in 10.0 mi NNW 4.6 mph - N/A   Clear
7:57 PM 44.6 °F 41.4 °F 33.8 °F 66% 30.39 in 10.0 mi NNW 5.8 mph - N/A   Clear
8:16 PM 42.8 °F - 33.8 °F 70% 30.39 in 10.0 mi Calm Calm - N/A   Clear
8:35 PM 41.0 °F 39.0 °F 33.8 °F 76% 30.39 in 10.0 mi NW 3.5 mph - N/A   Clear
8:54 PM 41.0 °F - 33.8 °F 76% 30.39 in 10.0 mi Calm Calm - N/A   Clear
9:14 PM 41.0 °F - 33.8 °F 76% 30.40 in 10.0 mi Calm Calm - N/A   Clear
9:33 PM 41.0 °F - 33.8 °F 76% 30.39 in 10.0 mi Calm Calm - N/A   Clear
9:52 PM 39.2 °F - 35.6 °F 87% 30.40 in 10.0 mi Calm Calm - N/A   Clear
10:12 PM 37.4 °F - 33.8 °F 87% 30.40 in 10.0 mi Calm Calm - N/A   Clear
10:31 PM 37.4 °F - 33.8 °F 87% 30.40 in 10.0 mi Calm Calm - N/A   Clear
10:50 PM 37.4 °F - 33.8 °F 87% 30.40 in 10.0 mi Calm Calm - N/A   Clear